Terminal Aerodrome Forecast
Issued by NWS Topeka, KS

Home | Current Version | Previous Version | Text Only | Print | Product List | Glossary On
Versions: 1 2 3 4 5 6 7 8 9 10 11 12 13 14 15 16 17 18 19 20 21 22 23 24 25 26 27
885
FTUS43 KTOP 051507 AAB
TAFTOP
TAF AMD
KTOP 051507Z 0515/0612 16006KT P6SM SKC
      TEMPO 0515/0517 SCT008
     FM051700 18012G22KT P6SM FEW015 SCT150
     FM060000 VRB03KT P6SM SCT150
     FM060700 34013KT P6SM BKN040=

USA.gov is the U.S. government's official web portal to all federal, state and local government web resources and services.